Time;durP1;ratioP1;P1;durP2;ratioP2;P2;SDS_P1;SDS_P2;PMS_P1;PMS_P2;Temp;Humidity;BMP_temperature;BMP_pressure;BME280_temperature;BME280_humidity;BME280_pressure;Samples;Min_cycle;Max_cycle;Signal;HPM_P1;HPM_P2
2024/02/22 00:01:02;;;;;;;16.35;9.63;;;;;;;28.58;73.97;101157.03;5049518;28;66253;-31
2024/02/22 00:03:32;;;;;;;26.40;10.77;;;;;;;28.61;75.52;101159.34;5055087;27;70755;-31
2024/02/22 00:06:05;;;;;;;25.45;11.30;;;;;;;28.59;76.41;101153.31;5051079;28;66733;-31
2024/02/22 00:08:35;;;;;;;11.88;10.65;;;;;;;28.63;75.83;101159.97;5042430;28;70073;-31
2024/02/22 00:11:05;;;;;;;18.55;11.75;;;;;;;28.66;76.47;101164.97;5062592;28;66874;-31
2024/02/22 00:13:36;;;;;;;17.13;10.98;;;;;;;28.63;77.18;101160.81;5043691;28;70160;-31
2024/02/22 00:16:08;;;;;;;16.27;11.88;;;;;;;28.68;77.57;101169.16;5065125;28;66586;-31
2024/02/22 00:18:38;;;;;;;14.23;10.67;;;;;;;28.72;77.55;101172.28;5065213;28;70242;-30
2024/02/22 00:21:09;;;;;;;16.92;10.32;;;;;;;28.73;76.59;101174.78;5042182;28;66515;-30
2024/02/22 00:23:39;;;;;;;18.42;9.85;;;;;;;28.79;77.32;101181.25;5054960;28;69972;-31
2024/02/22 00:26:11;;;;;;;16.25;10.82;;;;;;;28.86;77.41;101186.69;5048135;28;66029;-32
2024/02/22 00:28:43;;;;;;;13.30;10.30;;;;;;;28.96;76.98;101181.75;5053125;28;71716;-32
2024/02/22 00:31:13;;;;;;;14.23;10.13;;;;;;;28.89;77.45;101184.44;5050281;28;65262;-31
2024/02/22 00:33:45;;;;;;;19.55;10.82;;;;;;;28.93;79.04;101188.41;5052641;28;69307;-31
2024/02/22 00:36:17;;;;;;;11.55;10.25;;;;;;;28.91;78.73;101195.84;5053558;28;66409;-31
2024/02/22 00:38:48;;;;;;;15.57;10.85;;;;;;;28.90;79.32;101191.50;5057110;28;70685;-31
2024/02/22 00:41:18;;;;;;;16.35;9.95;;;;;;;28.88;78.23;101190.03;5051040;28;66240;-31
2024/02/22 00:43:53;;;;;;;22.90;10.75;;;;;;;29.01;78.14;101197.38;5054448;28;69401;-31
2024/02/22 00:46:23;;;;;;;13.75;9.88;;;;;;;29.04;78.09;101194.31;5054737;28;65368;-30
2024/02/22 00:48:54;;;;;;;13.43;9.52;;;;;;;29.07;77.94;101199.31;5055013;28;70161;-30
2024/02/22 00:51:24;;;;;;;13.10;8.85;;;;;;;29.04;78.29;101197.00;5056501;28;66162;-31
2024/02/22 00:53:55;;;;;;;10.75;8.13;;;;;;;29.08;78.31;101209.06;5044132;28;69658;-32
2024/02/22 00:56:26;;;;;;;18.67;8.27;;;;;;;29.10;78.40;101210.53;5043598;28;66711;-31
2024/02/22 00:58:56;;;;;;;13.20;7.75;;;;;;;29.12;78.14;101213.06;5047651;28;70190;-30
2024/02/22 01:01:27;;;;;;;9.50;8.35;;;;;;;29.15;77.80;101213.47;5049758;28;66554;-32
2024/02/22 01:03:58;;;;;;;12.50;7.93;;;;;;;29.17;77.78;101210.59;5047623;28;69511;-30
2024/02/22 01:06:29;;;;;;;9.02;6.53;;;;;;;29.15;77.95;101207.25;5048624;28;65837;-31
2024/02/22 01:09:00;;;;;;;9.75;7.68;;;;;;;29.20;77.84;101212.88;5055848;28;70513;-31
2024/02/22 01:11:31;;;;;;;7.65;6.90;;;;;;;29.20;77.68;101221.00;5053668;28;65972;-32
2024/02/22 01:14:01;;;;;;;9.85;7.45;;;;;;;29.23;77.48;101225.97;5057211;28;70276;-31
2024/02/22 01:16:34;;;;;;;12.40;7.15;;;;;;;29.27;77.16;101229.94;5047175;28;65629;-32
2024/02/22 01:19:05;;;;;;;8.00;7.22;;;;;;;29.28;77.29;101226.22;5050383;28;70298;-31
2024/02/22 01:21:36;;;;;;;9.63;6.60;;;;;;;29.30;77.43;101232.22;5042980;28;65479;-32
2024/02/22 01:24:06;;;;;;;7.18;6.47;;;;;;;29.33;76.67;101237.22;5043633;28;70621;-31
2024/02/22 01:26:38;;;;;;;9.70;6.50;;;;;;;29.31;77.15;101239.31;5054971;28;65773;-31
2024/02/22 01:29:08;;;;;;;8.48;7.03;;;;;;;29.37;76.69;101240.38;5043236;28;69630;-31
2024/02/22 01:31:39;;;;;;;7.32;6.63;;;;;;;29.39;76.99;101241.84;5062319;28;66401;-32
2024/02/22 01:34:09;;;;;;;9.38;6.53;;;;;;;29.39;76.69;101241.84;5059682;28;70136;-31
2024/02/22 01:36:40;;;;;;;7.40;5.95;;;;;;;29.42;76.87;101250.56;5046066;28;66634;-31
2024/02/22 01:39:11;;;;;;;8.90;6.78;;;;;;;29.38;76.62;101248.28;5045203;28;68594;-31
2024/02/22 01:41:42;;;;;;;;;;;;;;;29.34;77.62;101255.13;5060362;28;65499;-31
2024/02/22 01:44:12;;;;;;;7.53;6.60;;;;;;;29.48;76.10;101255.19;5052842;28;70475;-32
2024/02/22 01:46:43;;;;;;;9.43;6.45;;;;;;;29.42;76.43;101250.56;5053363;28;66288;-31
2024/02/22 01:49:14;;;;;;;8.45;6.35;;;;;;;29.54;75.89;101270.59;5051362;28;70214;-32
2024/02/22 01:51:44;;;;;;;8.50;7.30;;;;;;;29.54;76.38;101270.59;5059282;28;65931;-32
2024/02/22 01:54:15;;;;;;;6.97;6.28;;;;;;;29.57;75.66;101267.50;5059200;28;69842;-32
2024/02/22 01:56:46;;;;;;;6.95;6.35;;;;;;;29.51;75.99;101260.19;5057844;28;66667;-32
2024/02/22 01:59:17;;;;;;;7.05;6.40;;;;;;;29.61;75.54;101276.84;5046566;28;69476;-33
2024/02/22 02:01:52;;;;;;;7.30;6.70;;;;;;;29.64;75.98;101292.69;5058439;28;66242;-32
2024/02/22 02:04:24;;;;;;;7.00;6.40;;;;;;;29.67;75.58;101286.91;5050199;28;69608;-32
2024/02/22 02:06:54;;;;;;;7.50;6.72;;;;;;;29.66;75.24;101293.34;5056410;28;65625;-32
2024/02/22 02:09:25;;;;;;;8.00;6.55;;;;;;;29.71;75.83;101298.97;5053744;28;70021;-32
2024/02/22 02:11:56;;;;;;;7.85;6.45;;;;;;;29.74;75.61;101303.16;5049676;28;67164;-32
2024/02/22 02:14:26;;;;;;;6.43;5.78;;;;;;;29.74;75.10;101301.28;5058645;28;70156;-33
2024/02/22 02:16:57;;;;;;;7.07;6.07;;;;;;;29.79;75.13;101300.66;5062142;28;66255;-32
2024/02/22 02:19:30;;;;;;;6.95;6.45;;;;;;;29.80;74.91;101303.16;5059098;28;69599;-31
2024/02/22 02:22:16;;;;;;;6.97;6.35;;;;;;;29.67;75.36;101286.91;5058852;28;65489;-32
2024/02/22 02:24:53;;;;;;;7.63;6.82;;;;;;;29.84;75.58;101312.53;5058628;28;69592;-33
2024/02/22 02:27:24;;;;;;;7.13;6.15;;;;;;;29.86;74.87;101300.69;5048843;28;65528;-31
2024/02/22 02:29:54;;;;;;;7.30;6.70;;;;;;;29.92;74.83;101311.53;5058802;28;69527;-32
2024/02/22 02:32:25;;;;;;;8.98;6.80;;;;;;;29.96;74.56;101317.38;5060800;28;66154;-35
2024/02/22 02:34:55;;;;;;;8.30;6.50;;;;;;;29.96;74.31;101311.97;5059473;28;70321;-32
2024/02/22 02:37:26;;;;;;;7.38;6.68;;;;;;;30.01;74.33;101317.59;5054960;28;65969;-35
2024/02/22 02:39:56;;;;;;;7.30;6.60;;;;;;;30.05;74.74;101313.44;5042691;28;69471;-32
2024/02/22 02:42:27;;;;;;;7.15;6.47;;;;;;;30.06;74.41;101318.66;5041532;28;66602;-32
2024/02/22 02:44:57;;;;;;;6.55;6.05;;;;;;;30.07;74.19;101314.06;5043950;28;69738;-31
2024/02/22 02:47:28;;;;;;;7.57;6.20;;;;;;;30.11;74.10;101317.19;5044972;28;65731;-33
2024/02/22 02:49:58;;;;;;;6.97;5.85;;;;;;;30.14;74.46;101308.66;5053322;28;70295;-31
2024/02/22 02:52:29;;;;;;;7.57;6.60;;;;;;;30.16;74.23;101312.00;5040630;28;65784;-32
2024/02/22 02:55:00;;;;;;;6.35;5.82;;;;;;;30.19;74.15;101315.13;5041187;28;70047;-32
2024/02/22 02:57:31;;;;;;;7.97;6.22;;;;;;;30.24;74.35;101326.19;5044451;28;67715;-31
2024/02/22 03:00:01;;;;;;;6.20;5.65;;;;;;;30.26;73.89;101316.00;5057207;28;70642;-32
2024/02/22 03:02:33;;;;;;;7.40;6.28;;;;;;;30.31;73.49;101325.38;5054733;28;66028;-32
2024/02/22 03:05:04;;;;;;;7.13;5.80;;;;;;;30.31;73.63;101317.25;5054359;28;70749;-33
2024/02/22 03:07:38;;;;;;;7.15;5.75;;;;;;;30.37;73.65;101319.13;5058136;28;65260;-31
2024/02/22 03:10:09;;;;;;;6.38;5.88;;;;;;;30.42;73.57;101322.03;5059302;28;70130;-31
2024/02/22 03:12:40;;;;;;;7.27;5.30;;;;;;;30.44;73.76;101320.81;5058710;28;66086;-32
2024/02/22 03:15:10;;;;;;;6.13;5.32;;;;;;;30.47;73.15;101322.25;5056018;28;70539;-32
2024/02/22 03:17:41;;;;;;;6.07;5.57;;;;;;;30.51;73.04;101320.84;5056980;28;65894;-32
2024/02/22 03:20:11;;;;;;;5.80;5.30;;;;;;;30.55;73.18;101327.47;5044580;28;71254;-31
2024/02/22 03:22:42;;;;;;;6.10;5.53;;;;;;;30.57;72.92;101309.16;5049898;28;66698;-31
2024/02/22 03:25:13;;;;;;;6.20;5.70;;;;;;;30.58;73.16;101305.41;5059134;28;70480;-32
2024/02/22 03:27:44;;;;;;;5.78;5.18;;;;;;;30.64;72.89;101301.03;5059333;28;65934;-33
2024/02/22 03:30:16;;;;;;;5.63;5.13;;;;;;;30.67;72.88;101300.59;5059908;28;70940;-32
2024/02/22 03:32:46;;;;;;;;;;;;;;;30.62;73.60;101294.97;5060719;28;65712;-31
2024/02/22 03:35:16;;;;;;;5.63;5.18;;;;;;;30.74;72.45;101290.63;5051148;28;70500;-31
2024/02/22 03:37:47;;;;;;;6.18;5.38;;;;;;;30.75;72.65;101294.16;5052559;28;66243;-32
2024/02/22 03:40:17;;;;;;;6.50;5.72;;;;;;;30.79;72.77;101285.41;5040502;28;69384;-31
2024/02/22 03:42:47;;;;;;;5.60;5.10;;;;;;;30.79;72.18;101279.16;5043171;28;65369;-32
2024/02/22 03:45:18;;;;;;;5.82;5.40;;;;;;;30.85;72.29;101278.34;5049358;28;70556;-31
2024/02/22 03:47:49;;;;;;;6.00;5.50;;;;;;;30.85;72.30;101273.75;5047795;28;66429;-33
2024/02/22 03:50:20;;;;;;;6.18;5.55;;;;;;;30.91;72.06;101281.03;5039446;28;69760;-35
2024/02/22 03:52:50;;;;;;;5.25;4.75;;;;;;;30.94;72.18;101268.94;5046297;28;66065;-36
2024/02/22 03:55:21;;;;;;;6.40;5.63;;;;;;;30.97;71.97;101271.22;5049956;28;70003;-32
2024/02/22 03:57:52;;;;;;;5.65;4.80;;;;;;;31.00;71.94;101268.09;5048775;28;66542;-31
2024/02/22 04:00:22;;;;;;;5.40;5.00;;;;;;;30.99;71.96;101266.44;5052218;28;70024;-32
2024/02/22 04:02:53;;;;;;;5.60;4.85;;;;;;;31.07;72.00;101268.91;5059085;28;66802;-32
2024/02/22 04:05:23;;;;;;;5.57;5.18;;;;;;;31.08;71.60;101261.63;5056135;28;70158;-33
2024/02/22 04:07:54;;;;;;;5.03;4.63;;;;;;;31.10;71.53;101257.66;5057936;28;64989;-33
2024/02/22 04:10:25;;;;;;;5.22;4.82;;;;;;;31.15;71.62;101243.47;5047739;28;69871;-33
2024/02/22 04:12:55;;;;;;;4.95;4.55;;;;;;;31.19;71.21;101247.41;5038036;28;66389;-33
2024/02/22 04:15:26;;;;;;;5.40;4.95;;;;;;;31.22;71.31;101236.13;5047122;28;69954;-31
2024/02/22 04:17:57;;;;;;;5.63;5.13;;;;;;;31.25;71.30;101234.88;5053889;28;66231;-31
2024/02/22 04:20:27;;;;;;;4.63;4.22;;;;;;;31.27;71.10;101244.47;5055186;28;70359;-32
2024/02/22 04:22:58;;;;;;;5.00;4.60;;;;;;;31.30;71.38;101232.38;5051300;28;66345;-32
2024/02/22 04:25:29;;;;;;;5.37;4.60;;;;;;;31.29;71.32;101231.53;5054801;28;70260;-31
2024/02/22 04:28:00;;;;;;;4.78;4.32;;;;;;;31.36;71.01;101234.25;5047391;28;66386;-32
2024/02/22 04:30:31;;;;;;;5.80;4.20;;;;;;;31.38;71.07;101218.59;5047519;28;70240;-34
2024/02/22 04:33:01;;;;;;;4.63;4.25;;;;;;;31.42;70.80;101211.69;5053107;28;66314;-32
2024/02/22 04:35:32;;;;;;;4.82;4.50;;;;;;;31.44;70.81;101201.47;5060795;28;71128;-33
2024/02/22 04:38:02;;;;;;;6.97;4.65;;;;;;;31.48;70.31;101202.72;5048605;27;66229;-32
2024/02/22 04:40:33;;;;;;;5.53;4.57;;;;;;;31.51;70.77;101199.56;5039437;28;69780;-32
2024/02/22 04:43:04;;;;;;;4.38;3.97;;;;;;;31.50;70.59;101186.22;5039083;28;66503;-32
2024/02/22 04:45:35;;;;;;;5.60;5.03;;;;;;;31.57;70.54;101195.16;5039630;28;69405;-33
2024/02/22 04:48:06;;;;;;;5.18;4.78;;;;;;;31.59;70.38;101193.88;5044355;28;66375;-31
2024/02/22 04:50:38;;;;;;;5.28;4.72;;;;;;;31.64;70.26;101184.25;5056642;28;71009;-32
2024/02/22 04:53:10;;;;;;;7.10;4.15;;;;;;;31.66;70.21;101182.16;5047198;28;66036;-31
2024/02/22 04:55:40;;;;;;;;;;;;;;;31.61;70.40;101180.91;5051538;28;70427;-32
2024/02/22 04:58:11;;;;;;;4.63;4.20;;;;;;;31.73;69.92;101174.78;5044056;28;66474;-33
2024/02/22 05:00:44;;;;;;;5.22;4.70;;;;;;;31.74;70.05;101173.75;5049514;28;70441;-31
2024/02/22 05:03:15;;;;;;;5.60;4.43;;;;;;;31.72;70.00;101162.28;5045315;28;66494;-32
2024/02/22 05:05:45;;;;;;;5.00;4.60;;;;;;;31.80;69.76;101156.59;5051020;28;69042;-32
2024/02/22 05:08:16;;;;;;;6.60;4.50;;;;;;;31.82;69.96;101151.78;5051556;28;66096;-32
2024/02/22 05:10:47;;;;;;;4.85;4.30;;;;;;;31.71;69.40;101120.78;5043079;28;69333;-33
2024/02/22 05:13:19;;;;;;;5.45;4.13;;;;;;;31.89;69.38;101152.56;5054425;28;66804;-31
2024/02/22 05:15:50;;;;;;;4.75;4.35;;;;;;;31.92;69.61;101149.44;5042073;28;69736;-34
2024/02/22 05:18:20;;;;;;;6.05;4.45;;;;;;;31.94;69.51;101143.78;5045470;28;66684;-32
2024/02/22 05:20:52;;;;;;;4.72;4.15;;;;;;;31.94;69.60;101139.19;5039772;28;69865;-32
2024/02/22 05:23:24;;;;;;;4.38;4.07;;;;;;;31.66;69.41;101095.38;5047229;28;66457;-30
2024/02/22 05:25:55;;;;;;;4.60;4.18;;;;;;;32.02;69.36;101132.66;5043661;28;70204;-32
2024/02/22 05:28:25;;;;;;;4.22;3.83;;;;;;;32.02;69.31;101128.06;5045775;28;66440;-31
2024/02/22 05:30:57;;;;;;;4.78;4.30;;;;;;;32.05;69.17;101127.63;5050521;28;70847;-31
2024/02/22 05:33:27;;;;;;;5.00;4.55;;;;;;;32.04;69.20;101114.28;5055172;28;66255;-32
2024/02/22 05:35:58;;;;;;;4.40;4.00;;;;;;;32.11;68.91;101108.78;5047499;28;70095;-32
2024/02/22 05:38:28;;;;;;;4.40;4.00;;;;;;;32.14;69.16;101108.34;5058105;28;66505;-31
2024/02/22 05:40:59;;;;;;;4.65;4.28;;;;;;;32.15;68.98;101096.41;5049204;28;70170;-32
2024/02/22 05:43:29;;;;;;;4.70;4.30;;;;;;;32.15;69.11;101088.28;5043839;28;65504;-34
2024/02/22 05:46:00;;;;;;;4.25;3.80;;;;;;;32.21;69.31;101098.25;5048490;28;70416;-31
2024/02/22 05:48:30;;;;;;;4.70;4.32;;;;;;;32.26;68.89;101085.66;5059513;28;65824;-33
2024/02/22 05:51:01;;;;;;;5.57;3.90;;;;;;;32.29;69.17;101084.41;5059786;28;69235;-31
2024/02/22 05:53:31;;;;;;;4.15;3.83;;;;;;;32.30;68.84;101085.22;5058252;28;65626;-32
2024/02/22 05:56:02;;;;;;;6.53;4.28;;;;;;;32.26;68.92;101063.09;5060410;28;70050;-32
2024/02/22 05:58:33;;;;;;;4.40;4.10;;;;;;;32.30;68.63;101058.91;5061234;28;65804;-34
2024/02/22 06:01:04;;;;;;;3.85;3.55;;;;;;;32.39;68.44;101064.84;5046835;28;70419;-33
2024/02/22 06:03:35;;;;;;;4.82;4.43;;;;;;;32.38;68.92;101052.34;5059913;28;65563;-32
2024/02/22 06:06:06;;;;;;;9.30;4.47;;;;;;;32.44;68.65;101054.16;5042467;28;70093;-32
2024/02/22 06:08:36;;;;;;;5.88;4.10;;;;;;;32.46;68.54;101052.91;5048188;28;65639;-33
2024/02/22 06:11:08;;;;;;;4.80;4.38;;;;;;;32.48;68.64;101044.50;5043881;28;69986;-33
2024/02/22 06:13:38;;;;;;;5.00;4.57;;;;;;;32.53;68.55;101041.13;5045188;28;65745;-35
2024/02/22 06:16:09;;;;;;;3.85;3.50;;;;;;;32.53;68.69;101035.69;5058576;28;70167;-32
2024/02/22 06:18:40;;;;;;;4.28;3.97;;;;;;;32.58;68.31;101033.13;5051184;28;66563;-33
2024/02/22 06:21:10;;;;;;;4.03;3.72;;;;;;;32.60;68.65;101036.44;5061387;28;69833;-33
2024/02/22 06:23:41;;;;;;;3.78;3.47;;;;;;;32.64;68.21;101015.91;5053772;28;67444;-32
2024/02/22 06:26:11;;;;;;;6.10;4.20;;;;;;;32.66;68.31;101014.63;5055381;28;70096;-31
2024/02/22 06:28:42;;;;;;;4.22;3.60;;;;;;;32.67;68.29;100991.81;5045865;28;66574;-33
2024/02/22 06:31:13;;;;;;;4.07;3.78;;;;;;;32.73;68.11;101000.94;5058998;28;70795;-33
2024/02/22 06:33:45;;;;;;;6.72;3.75;;;;;;;32.76;68.19;100999.66;5061162;28;66254;-32
2024/02/22 06:36:15;;;;;;;4.18;3.78;;;;;;;32.78;68.09;100987.50;5067768;28;69958;-33
2024/02/22 06:38:46;;;;;;;4.50;4.10;;;;;;;32.82;68.14;100975.13;5059342;28;66276;-32
2024/02/22 06:41:18;;;;;;;3.97;3.67;;;;;;;32.85;68.16;100969.22;5050337;28;70323;-35
2024/02/22 06:43:48;;;;;;;4.05;3.70;;;;;;;32.87;67.79;100972.53;5050599;28;65348;-32
2024/02/22 06:46:20;;;;;;;3.47;3.17;;;;;;;32.91;68.06;100968.28;5058934;28;70287;-34
2024/02/22 06:48:51;;;;;;;3.92;3.63;;;;;;;32.93;68.08;100971.63;5057804;28;66285;-32
2024/02/22 06:51:22;;;;;;;4.53;4.10;;;;;;;32.94;68.20;100956.97;5057783;28;69964;-33
2024/02/22 06:53:53;;;;;;;3.60;3.30;;;;;;;33.01;68.05;100956.88;5040515;28;66644;-32
2024/02/22 06:56:23;;;;;;;3.75;3.35;;;;;;;33.05;68.03;100963.50;5041275;28;69603;-31
2024/02/22 06:58:54;;;;;;;5.05;3.63;;;;;;;33.07;67.74;100961.41;5057724;28;66367;-33
2024/02/22 07:01:25;;;;;;;4.40;3.70;;;;;;;33.10;67.74;100949.25;5052923;28;69946;-34
2024/02/22 07:03:57;;;;;;;3.67;3.38;;;;;;;33.15;67.83;100955.63;5046782;28;66508;-33
2024/02/22 07:06:28;;;;;;;7.22;3.45;;;;;;;33.03;67.43;100927.59;5057027;28;70777;-32
2024/02/22 07:08:59;;;;;;;3.97;3.47;;;;;;;33.20;68.01;100944.03;5040942;28;66769;-31
2024/02/22 07:11:32;;;;;;;3.60;3.30;;;;;;;33.25;67.93;100937.91;5045952;28;71108;-32
2024/02/22 07:14:04;;;;;;;3.30;3.10;;;;;;;33.32;67.65;100947.59;5046804;28;66911;-33
2024/02/22 07:16:34;;;;;;;3.97;3.63;;;;;;;33.34;67.67;100934.56;5055868;28;69655;-34
2024/02/22 07:19:05;;;;;;;3.58;2.97;;;;;;;33.40;67.46;100931.97;5041323;28;65911;-31
2024/02/22 07:21:36;;;;;;;5.32;3.85;;;;;;;33.43;67.56;100934.22;5056018;28;69923;-32
2024/02/22 07:24:07;;;;;;;3.05;2.72;;;;;;;33.48;67.51;100927.00;5056473;28;66161;-32
2024/02/22 07:26:38;;;;;;;3.53;3.22;;;;;;;33.45;67.40;100915.78;5042169;28;69432;-31
2024/02/22 07:29:09;;;;;;;4.15;3.35;;;;;;;33.56;67.38;100923.16;5045739;28;67092;-32
2024/02/22 07:31:43;;;;;;;4.60;3.75;;;;;;;33.59;67.34;100922.66;5046509;28;70101;-31
2024/02/22 07:34:14;;;;;;;5.68;3.78;;;;;;;33.63;67.43;100920.28;5041843;28;65931;-33
2024/02/22 07:36:45;;;;;;;9.00;3.10;;;;;;;33.67;67.50;100922.31;5045048;28;70146;-32
2024/02/22 07:39:15;;;;;;;5.93;3.72;;;;;;;33.73;67.40;100915.09;5039373;28;65861;-33
2024/02/22 07:41:45;;;;;;;6.50;3.08;;;;;;;33.75;67.51;100913.78;5037859;28;69317;-32
2024/02/22 07:44:17;;;;;;;6.55;3.15;;;;;;;33.83;67.17;100914.50;5040147;28;65938;-33
2024/02/22 07:46:47;;;;;;;4.03;3.72;;;;;;;33.85;67.18;100909.63;5040709;28;69224;-32
2024/02/22 07:49:20;;;;;;;2.95;2.67;;;;;;;33.90;66.98;100905.09;5051550;28;65994;-31
2024/02/22 07:51:51;;;;;;;8.60;3.22;;;;;;;33.95;67.12;100896.22;5046980;28;70469;-33
2024/02/22 07:54:27;;;;;;;5.40;3.33;;;;;;;34.01;67.15;100900.69;5046283;27;66698;-32
2024/02/22 07:56:57;;;;;;;4.65;3.00;;;;;;;34.07;66.96;100894.31;5054356;28;70057;-33
2024/02/22 07:59:28;;;;;;;3.83;3.00;;;;;;;34.11;66.75;100895.50;5058368;28;66018;-32
2024/02/22 08:02:00;;;;;;;6.45;3.08;;;;;;;34.17;66.83;100897.25;5053369;28;70722;-32
2024/02/22 08:04:31;;;;;;;3.35;2.65;;;;;;;34.22;67.02;100897.34;5046246;28;66102;-34
2024/02/22 08:07:03;;;;;;;4.80;2.83;;;;;;;34.25;66.71;100890.59;5050255;28;70218;-31
2024/02/22 08:09:34;;;;;;;4.47;3.20;;;;;;;34.26;66.63;100876.72;5051094;28;66545;-32
2024/02/22 08:12:05;;;;;;;6.32;2.90;;;;;;;34.35;66.31;100882.63;5057220;28;68988;-33
2024/02/22 08:14:36;;;;;;;3.05;2.50;;;;;;;34.31;66.33;100867.84;5045575;28;66670;-33
2024/02/22 08:17:07;;;;;;;3.17;2.85;;;;;;;34.52;66.24;100889.97;5043505;28;70434;-33
2024/02/22 08:19:38;;;;;;;2.70;2.45;;;;;;;34.54;66.37;100888.66;5060363;28;65884;-32
2024/02/22 08:22:09;;;;;;;4.00;2.33;;;;;;;34.61;66.45;100899.47;5050114;28;69539;-32
2024/02/22 08:24:39;;;;;;;3.08;2.70;;;;;;;34.65;65.94;100885.06;5046586;28;66652;-33
2024/02/22 08:27:12;;;;;;;3.17;2.45;;;;;;;34.69;66.53;100888.97;5051338;28;70401;-32
2024/02/22 08:29:48;;;;;;;2.70;2.33;;;;;;;34.78;65.55;100896.75;5050564;28;66670;-33
2024/02/22 08:32:18;;;;;;;3.90;2.72;;;;;;;34.80;66.15;100886.41;5048548;28;70342;-33
2024/02/22 08:34:49;;;;;;;3.28;2.30;;;;;;;34.87;66.15;100887.06;5054046;28;66025;-33
2024/02/22 08:37:20;;;;;;;4.68;2.38;;;;;;;34.94;65.89;100876.84;5043638;28;70244;-32
2024/02/22 08:39:50;;;;;;;4.82;2.53;;;;;;;34.99;65.28;100876.91;5049842;28;66017;-34
2024/02/22 08:42:24;;;;;;;3.95;2.65;;;;;;;35.05;65.21;100883.25;5048172;28;69768;-33
2024/02/22 08:44:54;;;;;;;3.65;3.05;;;;;;;35.09;65.61;100879.84;5050925;28;65677;-32
2024/02/22 08:47:25;;;;;;;2.72;2.17;;;;;;;35.16;65.01;100895.19;5042732;28;70208;-33
2024/02/22 08:49:57;;;;;;;3.75;2.90;;;;;;;35.22;64.99;100880.56;5043162;28;66205;-32
2024/02/22 08:52:27;;;;;;;3.05;2.33;;;;;;;35.26;64.65;100882.53;5043528;28;69926;-32
2024/02/22 08:54:58;;;;;;;4.05;2.40;;;;;;;35.34;65.26;100892.19;5053316;28;66655;-34
2024/02/22 08:57:29;;;;;;;3.08;2.78;;;;;;;35.37;64.54;100886.25;5043119;28;70191;-32
2024/02/22 09:00:16;;;;;;;6.85;2.97;;;;;;;35.47;64.89;100886.38;5044189;28;64941;-35
2024/02/22 09:02:51;;;;;;;4.95;2.72;;;;;;;35.51;64.21;100890.25;5040514;28;69886;-33
2024/02/22 09:05:21;;;;;;;2.90;2.45;;;;;;;35.55;64.42;100893.28;5037411;28;65936;-32
2024/02/22 09:07:52;;;;;;;4.07;2.33;;;;;;;35.62;64.72;100884.97;5041284;28;69947;-33
2024/02/22 09:10:22;;;;;;;3.60;3.20;;;;;;;35.69;64.53;100891.06;5047280;27;66648;-32
2024/02/22 09:12:53;;;;;;;5.30;2.80;;;;;;;35.75;64.47;100887.34;5048296;28;70180;-32
2024/02/22 09:15:23;;;;;;;3.03;2.72;;;;;;;35.82;63.77;100881.66;5042036;28;65745;-33
2024/02/22 09:17:54;;;;;;;5.43;2.60;;;;;;;35.86;63.74;100886.38;5042850;28;69462;-32
2024/02/22 09:20:24;;;;;;;4.70;3.20;;;;;;;35.92;63.69;100887.25;5051115;28;65649;-33
2024/02/22 09:22:56;;;;;;;4.80;3.13;;;;;;;35.84;64.00;100884.97;5058376;28;69390;-33
2024/02/22 09:25:26;;;;;;;;;;;;;;;35.74;63.98;100881.03;5061400;28;66256;-33
2024/02/22 09:27:57;;;;;;;9.82;3.58;;;;;;;35.88;64.28;100903.31;5049298;28;69415;-33
2024/02/22 09:30:27;;;;;;;8.82;3.92;;;;;;;35.90;63.67;100889.41;5057079;28;66827;-33
2024/02/22 09:32:58;;;;;;;8.45;3.70;;;;;;;35.89;64.28;100902.25;5043477;28;70135;-34
2024/02/22 09:35:28;;;;;;;4.20;3.60;;;;;;;35.92;63.50;100890.81;5047398;28;65770;-33
2024/02/22 09:37:59;;;;;;;8.43;3.45;;;;;;;35.93;64.04;100889.72;5055451;28;70302;-33
2024/02/22 09:40:33;;;;;;;3.72;3.42;;;;;;;35.91;63.99;100902.81;5049385;28;66583;-33
2024/02/22 09:43:05;;;;;;;8.87;3.40;;;;;;;35.94;63.17;100907.78;5041606;28;70391;-33
2024/02/22 09:45:37;;;;;;;;;;;;;;;35.98;63.68;100908.91;5054432;28;65382;-33
2024/02/22 09:48:09;;;;;;;5.82;3.30;;;;;;;36.06;63.01;100904.94;5053252;28;69513;-32
2024/02/22 09:50:40;;;;;;;8.82;3.60;;;;;;;36.01;62.99;100908.38;5042842;28;65428;-32
2024/02/22 09:53:11;;;;;;;4.43;3.53;;;;;;;36.11;63.04;100912.34;5046885;28;69980;-32
2024/02/22 09:55:43;;;;;;;4.72;3.90;;;;;;;36.16;63.00;100909.66;5047161;28;67185;-33
2024/02/22 09:58:20;;;;;;;6.65;3.75;;;;;;;36.10;63.38;100906.06;5045881;28;69991;-33
2024/02/22 10:00:52;;;;;;;5.15;3.45;;;;;;;36.19;63.30;100909.16;5042024;28;66269;-31
2024/02/22 10:03:35;;;;;;;6.00;3.25;;;;;;;36.12;62.46;100908.53;5041060;28;70568;-32
2024/02/22 10:06:17;;;;;;;8.30;4.07;;;;;;;36.09;62.83;100911.78;5044160;28;65850;-33
2024/02/22 10:08:48;;;;;;;9.90;3.78;;;;;;;36.12;62.86;100914.00;5050802;28;70418;-32
2024/02/22 10:11:19;;;;;;;9.70;3.33;;;;;;;36.21;62.29;100926.13;5049608;28;65475;-33
2024/02/22 10:13:57;;;;;;;;;;;;;;;36.13;61.92;100918.38;5049112;28;70127;-33
2024/02/22 10:16:28;;;;;;;8.32;4.13;;;;;;;36.14;63.13;100917.31;5048649;28;66671;-32
2024/02/22 10:19:01;;;;;;;14.23;4.40;;;;;;;36.19;62.14;100931.84;5051815;28;70333;-32
2024/02/22 10:21:32;;;;;;;8.00;4.13;;;;;;;36.17;63.23;100925.00;5042898;28;65468;-32
2024/02/22 10:24:02;;;;;;;5.78;3.38;;;;;;;36.09;62.77;100925.44;5043965;28;70120;-32
2024/02/22 10:26:33;;;;;;;4.10;3.60;;;;;;;36.13;62.67;100932.03;5041272;28;66335;-32
2024/02/22 10:29:08;;;;;;;8.00;3.72;;;;;;;35.96;63.23;100910.22;5040692;28;72072;-32
2024/02/22 10:31:48;;;;;;;6.15;3.45;;;;;;;36.03;62.98;100932.72;5043768;28;66869;-33
2024/02/22 10:34:19;;;;;;;5.47;3.35;;;;;;;36.10;63.60;100944.28;5052864;28;70513;-31
2024/02/22 10:36:50;;;;;;;;;;;;;;;36.02;63.51;100942.81;5054890;28;66026;-33
2024/02/22 10:39:21;;;;;;;5.03;3.63;;;;;;;36.03;63.10;100947.19;5051532;28;69850;-32
2024/02/22 10:41:53;;;;;;;9.88;3.55;;;;;;;36.03;63.33;100955.38;5048204;28;65707;-32
2024/02/22 10:44:24;;;;;;;6.40;3.85;;;;;;;36.00;63.60;100953.16;5046766;28;70146;-32
2024/02/22 10:46:56;;;;;;;4.05;3.42;;;;;;;36.01;63.82;100956.72;5048006;28;66971;-32
2024/02/22 10:49:33;;;;;;;4.70;3.72;;;;;;;35.97;63.51;100961.84;5047111;28;70485;-32
2024/02/22 10:52:06;;;;;;;7.38;3.70;;;;;;;35.86;63.34;100960.06;5055822;28;66170;-32
2024/02/22 10:54:40;;;;;;;6.43;3.65;;;;;;;35.88;63.84;100971.53;5048132;28;69736;-32
2024/02/22 10:57:12;;;;;;;5.00;3.65;;;;;;;35.82;63.44;100969.00;5054149;28;66584;-33
2024/02/22 10:59:45;;;;;;;7.47;3.53;;;;;;;35.78;63.72;100974.16;5042180;28;70872;-32
2024/02/22 11:02:16;;;;;;;6.72;4.13;;;;;;;35.74;63.49;100973.81;5049611;28;66034;-32
2024/02/22 11:04:47;;;;;;;6.50;3.83;;;;;;;35.71;63.66;100973.50;5042738;28;70666;-32
2024/02/22 11:07:21;;;;;;;7.10;3.97;;;;;;;35.66;64.20;100976.16;5054068;28;65769;-32
2024/02/22 11:09:54;;;;;;;5.20;3.85;;;;;;;35.64;64.57;100979.16;5051812;28;70159;-33
2024/02/22 11:12:32;;;;;;;6.32;4.72;;;;;;;35.38;64.38;100939.69;5046110;28;66653;-32
2024/02/22 11:15:10;;;;;;;12.55;4.88;;;;;;;35.51;64.94;100974.81;5049758;28;70497;-32
2024/02/22 11:17:55;;;;;;;11.52;5.03;;;;;;;35.27;65.34;100940.63;5051297;28;65777;-32
2024/02/22 11:20:36;;;;;;;5.40;4.65;;;;;;;35.38;65.61;100986.06;5051837;28;70165;-33
2024/02/22 11:23:14;;;;;;;6.20;4.77;;;;;;;35.34;65.09;100987.66;5047224;28;65014;-32
2024/02/22 11:25:46;;;;;;;6.10;4.32;;;;;;;35.32;65.73;100984.34;5045471;28;70206;-32
2024/02/22 11:28:17;;;;;;;9.85;4.53;;;;;;;35.26;65.55;100979.88;5042892;28;65637;-34
2024/02/22 11:30:48;;;;;;;6.40;3.73;;;;;;;35.21;65.33;100985.25;5045254;28;70260;-33
2024/02/22 11:33:22;;;;;;;6.95;3.85;;;;;;;35.13;66.06;100984.59;5044316;28;66231;-33
2024/02/22 11:35:56;;;;;;;7.70;5.15;;;;;;;35.09;66.18;100994.34;5055487;28;70587;-34
2024/02/22 11:38:27;;;;;;;15.68;6.70;;;;;;;35.14;66.13;100990.88;5051326;28;66043;-31
2024/02/22 11:41:04;;;;;;;19.55;7.18;;;;;;;34.69;67.25;100938.03;5048448;28;69840;-32
2024/02/22 11:43:35;;;;;;;18.23;7.47;;;;;;;35.01;66.61;101002.88;5052463;28;67881;-32